sensor_id;sensor_type;location;lat;lon;timestamp;pressure;altitude;pressure_sealevel;temperature;humidity
7052;BME280;3567;52.444;13.556;2023-04-20T00:01:45;101701.81;;;6.04;100.00
7052;BME280;3567;52.444;13.556;2023-04-20T00:04:11;101704.66;;;6.02;100.00
7052;BME280;3567;52.444;13.556;2023-04-20T00:06:37;101703.84;;;6.02;100.00
7052;BME280;3567;52.444;13.556;2023-04-20T00:09:02;101703.00;;;6.01;100.00
7052;BME280;3567;52.444;13.556;2023-04-20T00:11:28;101699.50;;;6.01;100.00
7052;BME280;3567;52.444;13.556;2023-04-20T00:13:54;101693.84;;;6.04;100.00
7052;BME280;3567;52.444;13.556;2023-04-20T00:16:19;101699.16;;;6.04;100.00
7052;BME280;3567;52.444;13.556;2023-04-20T00:18:45;101694.03;;;6.02;100.00
7052;BME280;3567;52.444;13.556;2023-04-20T00:21:11;101694.03;;;6.02;100.00
7052;BME280;3567;52.444;13.556;2023-04-20T00:23:36;101687.69;;;6.03;100.00
7052;BME280;3567;52.444;13.556;2023-04-20T00:26:02;101688.88;;;6.01;100.00
7052;BME280;3567;52.444;13.556;2023-04-20T00:28:27;101687.03;;;6.01;100.00
7052;BME280;3567;52.444;13.556;2023-04-20T00:30:52;101687.69;;;6.03;100.00
7052;BME280;3567;52.444;13.556;2023-04-20T00:33:18;101688.72;;;6.02;100.00
7052;BME280;3567;52.444;13.556;2023-04-20T00:35:43;101684.38;;;6.01;100.00
7052;BME280;3567;52.444;13.556;2023-04-20T00:38:09;101695.19;;;6.00;100.00
7052;BME280;3567;52.444;13.556;2023-04-20T00:40:34;101685.56;;;5.99;100.00
7052;BME280;3567;52.444;13.556;2023-04-20T00:43:12;101690.25;;;5.97;100.00
7052;BME280;3567;52.444;13.556;2023-04-20T00:45:38;101690.56;;;5.94;100.00
7052;BME280;3567;52.444;13.556;2023-04-20T00:48:04;101689.94;;;5.92;100.00
7052;BME280;3567;52.444;13.556;2023-04-20T00:50:29;101681.13;;;5.91;100.00
7052;BME280;3567;52.444;13.556;2023-04-20T00:52:55;101686.25;;;5.93;100.00
7052;BME280;3567;52.444;13.556;2023-04-20T00:55:21;101676.28;;;5.95;100.00
7052;BME280;3567;52.444;13.556;2023-04-20T00:57:47;101672.97;;;5.93;100.00
7052;BME280;3567;52.444;13.556;2023-04-20T01:00:13;101678.78;;;5.88;100.00
7052;BME280;3567;52.444;13.556;2023-04-20T01:02:39;101673.47;;;5.80;100.00
7052;BME280;3567;52.444;13.556;2023-04-20T01:05:05;101674.03;;;5.75;100.00
7052;BME280;3567;52.444;13.556;2023-04-20T01:07:30;101682.69;;;5.69;100.00
7052;BME280;3567;52.444;13.556;2023-04-20T01:09:55;101682.38;;;5.64;100.00
7052;BME280;3567;52.444;13.556;2023-04-20T01:12:21;101684.72;;;5.59;100.00
7052;BME280;3567;52.444;13.556;2023-04-20T01:14:46;101683.41;;;5.55;100.00
7052;BME280;3567;52.444;13.556;2023-04-20T01:17:11;101687.09;;;5.54;100.00
7052;BME280;3567;52.444;13.556;2023-04-20T01:19:39;101677.09;;;5.56;100.00
7052;BME280;3567;52.444;13.556;2023-04-20T01:22:06;101686.41;;;5.60;100.00
7052;BME280;3567;52.444;13.556;2023-04-20T01:24:32;101680.72;;;5.63;100.00
7052;BME280;3567;52.444;13.556;2023-04-20T01:26:58;101680.72;;;5.63;100.00
7052;BME280;3567;52.444;13.556;2023-04-20T01:29:23;101670.44;;;5.60;100.00
7052;BME280;3567;52.444;13.556;2023-04-20T01:31:49;101664.81;;;5.55;100.00
7052;BME280;3567;52.444;13.556;2023-04-20T01:34:14;101667.16;;;5.50;100.00
7052;BME280;3567;52.444;13.556;2023-04-20T01:36:42;101662.38;;;5.45;100.00
7052;BME280;3567;52.444;13.556;2023-04-20T01:39:07;101669.69;;;5.43;100.00
7052;BME280;3567;52.444;13.556;2023-04-20T01:41:32;101668.38;;;5.39;100.00
7052;BME280;3567;52.444;13.556;2023-04-20T01:43:58;101658.06;;;5.36;100.00
7052;BME280;3567;52.444;13.556;2023-04-20T01:46:23;101660.91;;;5.35;100.00
7052;BME280;3567;52.444;13.556;2023-04-20T01:48:48;101669.06;;;5.33;100.00
7052;BME280;3567;52.444;13.556;2023-04-20T01:51:14;101661.72;;;5.35;100.00
7052;BME280;3567;52.444;13.556;2023-04-20T01:53:39;101661.41;;;5.38;100.00
7052;BME280;3567;52.444;13.556;2023-04-20T01:56:05;101663.50;;;5.43;100.00
7052;BME280;3567;52.444;13.556;2023-04-20T01:58:30;101664.19;;;5.45;100.00
7052;BME280;3567;52.444;13.556;2023-04-20T02:00:56;101668.16;;;5.49;100.00
7052;BME280;3567;52.444;13.556;2023-04-20T02:03:21;101671.47;;;5.51;100.00
7052;BME280;3567;52.444;13.556;2023-04-20T02:05:46;101664.81;;;5.55;100.00
7052;BME280;3567;52.444;13.556;2023-04-20T02:08:12;101674.06;;;5.59;100.00
7052;BME280;3567;52.444;13.556;2023-04-20T02:10:37;101669.44;;;5.61;100.00
7052;BME280;3567;52.444;13.556;2023-04-20T02:13:03;101672.59;;;5.65;100.00
7052;BME280;3567;52.444;13.556;2023-04-20T02:15:28;101672.22;;;5.68;100.00
7052;BME280;3567;52.444;13.556;2023-04-20T02:17:53;101674.38;;;5.72;100.00
7052;BME280;3567;52.444;13.556;2023-04-20T02:20:19;101672.34;;;5.74;100.00
7052;BME280;3567;52.444;13.556;2023-04-20T02:22:44;101675.69;;;5.76;100.00
7052;BME280;3567;52.444;13.556;2023-04-20T02:25:10;101680.19;;;5.76;100.00
7052;BME280;3567;52.444;13.556;2023-04-20T02:27:35;101669.53;;;5.76;100.00
7052;BME280;3567;52.444;13.556;2023-04-20T02:32:37;101670.00;;;5.79;100.00
7052;BME280;3567;52.444;13.556;2023-04-20T02:35:03;101674.97;;;5.83;100.00
7052;BME280;3567;52.444;13.556;2023-04-20T02:37:29;101672.97;;;5.85;100.00
7052;BME280;3567;52.444;13.556;2023-04-20T02:39:54;101670.97;;;5.87;100.00
7052;BME280;3567;52.444;13.556;2023-04-20T02:42:20;101668.97;;;5.89;100.00
7052;BME280;3567;52.444;13.556;2023-04-20T02:44:45;101667.94;;;5.90;100.00
7052;BME280;3567;52.444;13.556;2023-04-20T02:47:10;101673.78;;;5.93;100.00
7052;BME280;3567;52.444;13.556;2023-04-20T02:49:36;101674.63;;;5.94;100.00
7052;BME280;3567;52.444;13.556;2023-04-20T02:52:03;101671.63;;;5.97;100.00
7052;BME280;3567;52.444;13.556;2023-04-20T02:54:28;101677.91;;;5.96;100.00
7052;BME280;3567;52.444;13.556;2023-04-20T02:56:54;101684.75;;;5.98;100.00
7052;BME280;3567;52.444;13.556;2023-04-20T02:59:19;101680.25;;;5.99;100.00
7052;BME280;3567;52.444;13.556;2023-04-20T03:01:44;101679.41;;;5.98;100.00
7052;BME280;3567;52.444;13.556;2023-04-20T03:04:10;101665.28;;;5.98;100.00
7052;BME280;3567;52.444;13.556;2023-04-20T03:06:35;101676.56;;;6.00;100.00
7052;BME280;3567;52.444;13.556;2023-04-20T03:09:01;101667.25;;;6.04;100.00
7052;BME280;3567;52.444;13.556;2023-04-20T03:11:26;101668.06;;;6.04;100.00
7052;BME280;3567;52.444;13.556;2023-04-20T03:13:51;101670.53;;;6.06;100.00
7052;BME280;3567;52.444;13.556;2023-04-20T03:16:17;101672.38;;;6.06;100.00
7052;BME280;3567;52.444;13.556;2023-04-20T03:18:42;101673.88;;;6.08;100.00
7052;BME280;3567;52.444;13.556;2023-04-20T03:21:08;101682.50;;;6.10;100.00
7052;BME280;3567;52.444;13.556;2023-04-20T03:23:33;101677.66;;;6.14;100.00
7052;BME280;3567;52.444;13.556;2023-04-20T03:25:58;101682.16;;;6.13;100.00
7052;BME280;3567;52.444;13.556;2023-04-20T03:28:25;101678.50;;;6.14;100.00
7052;BME280;3567;52.444;13.556;2023-04-20T03:30:50;101681.16;;;6.14;100.00
7052;BME280;3567;52.444;13.556;2023-04-20T03:33:16;101692.44;;;6.16;100.00
7052;BME280;3567;52.444;13.556;2023-04-20T03:35:41;101685.28;;;6.17;100.00
7052;BME280;3567;52.444;13.556;2023-04-20T03:38:07;101681.44;;;6.19;100.00
7052;BME280;3567;52.444;13.556;2023-04-20T03:40:32;101687.59;;;6.20;100.00
7052;BME280;3567;52.444;13.556;2023-04-20T03:42:58;101689.25;;;6.21;100.00
7052;BME280;3567;52.444;13.556;2023-04-20T03:45:23;101682.09;;;6.21;100.00
7052;BME280;3567;52.444;13.556;2023-04-20T03:47:48;101685.41;;;6.23;100.00
7052;BME280;3567;52.444;13.556;2023-04-20T03:50:14;101684.41;;;6.24;100.00
7052;BME280;3567;52.444;13.556;2023-04-20T03:52:39;101680.75;;;6.25;100.00
7052;BME280;3567;52.444;13.556;2023-04-20T03:55:05;101682.38;;;6.26;100.00
7052;BME280;3567;52.444;13.556;2023-04-20T03:57:32;101682.56;;;6.25;100.00
7052;BME280;3567;52.444;13.556;2023-04-20T03:59:57;101678.91;;;6.26;100.00
7052;BME280;3567;52.444;13.556;2023-04-20T04:02:22;101687.72;;;6.26;100.00
7052;BME280;3567;52.444;13.556;2023-04-20T04:04:48;101690.56;;;6.25;100.00
7052;BME280;3567;52.444;13.556;2023-04-20T04:07:14;101682.75;;;6.23;100.00
7052;BME280;3567;52.444;13.556;2023-04-20T04:09:39;101685.06;;;6.26;100.00
7052;BME280;3567;52.444;13.556;2023-04-20T04:12:05;101691.38;;;6.25;100.00
7052;BME280;3567;52.444;13.556;2023-04-20T04:14:32;101690.38;;;6.26;100.00
7052;BME280;3567;52.444;13.556;2023-04-20T04:16:57;101694.69;;;6.27;100.00
7052;BME280;3567;52.444;13.556;2023-04-20T04:19:22;101694.69;;;6.27;100.00
7052;BME280;3567;52.444;13.556;2023-04-20T04:21:48;101694.69;;;6.27;100.00
7052;BME280;3567;52.444;13.556;2023-04-20T04:24:13;101691.38;;;6.25;100.00
7052;BME280;3567;52.444;13.556;2023-04-20T04:26:39;101699.19;;;6.27;100.00
7052;BME280;3567;52.444;13.556;2023-04-20T04:29:04;101700.84;;;6.28;100.00
7052;BME280;3567;52.444;13.556;2023-04-20T04:31:30;101709.66;;;6.28;100.00
7052;BME280;3567;52.444;13.556;2023-04-20T04:33:59;101707.84;;;6.29;100.00
7052;BME280;3567;52.444;13.556;2023-04-20T04:36:24;101703.69;;;6.26;100.00
7052;BME280;3567;52.444;13.556;2023-04-20T04:38:51;101693.03;;;6.26;100.00
7052;BME280;3567;52.444;13.556;2023-04-20T04:41:16;101708.16;;;6.26;100.00
7052;BME280;3567;52.444;13.556;2023-04-20T04:43:43;101715.00;;;6.28;100.00
7052;BME280;3567;52.444;13.556;2023-04-20T04:46:09;101727.94;;;6.32;100.00
7052;BME280;3567;52.444;13.556;2023-04-20T04:48:35;101723.91;;;6.36;100.00
7052;BME280;3567;52.444;13.556;2023-04-20T04:51:02;101721.06;;;6.37;100.00
7052;BME280;3567;52.444;13.556;2023-04-20T04:53:27;101724.41;;;6.39;100.00
7052;BME280;3567;52.444;13.556;2023-04-20T04:55:52;101720.06;;;6.38;100.00
7052;BME280;3567;52.444;13.556;2023-04-20T04:58:18;101723.91;;;6.36;100.00
7052;BME280;3567;52.444;13.556;2023-04-20T05:00:43;101722.91;;;6.37;100.00
7052;BME280;3567;52.444;13.556;2023-04-20T05:03:09;101708.44;;;6.39;100.00
7052;BME280;3567;52.444;13.556;2023-04-20T05:05:34;101712.75;;;6.40;100.00
7052;BME280;3567;52.444;13.556;2023-04-20T05:07:59;101735.03;;;6.39;100.00
7052;BME280;3567;52.444;13.556;2023-04-20T05:10:25;101734.19;;;6.39;100.00
7052;BME280;3567;52.444;13.556;2023-04-20T05:12:50;101736.84;;;6.39;100.00
7052;BME280;3567;52.444;13.556;2023-04-20T05:15:16;101741.34;;;6.38;100.00
7052;BME280;3567;52.444;13.556;2023-04-20T05:17:42;101728.72;;;6.40;100.00
7052;BME280;3567;52.444;13.556;2023-04-20T05:20:08;101719.91;;;6.40;100.00
7052;BME280;3567;52.444;13.556;2023-04-20T05:22:34;101718.06;;;6.40;100.00
7052;BME280;3567;52.444;13.556;2023-04-20T05:25:00;101734.19;;;6.39;100.00
7052;BME280;3567;52.444;13.556;2023-04-20T05:27:25;101725.88;;;6.42;100.00
7052;BME280;3567;52.444;13.556;2023-04-20T05:29:51;101724.22;;;6.41;100.00
7052;BME280;3567;52.444;13.556;2023-04-20T05:32:16;101725.22;;;6.40;100.00
7052;BME280;3567;52.444;13.556;2023-04-20T05:34:41;101729.53;;;6.41;100.00
7052;BME280;3567;52.444;13.556;2023-04-20T05:37:07;101735.31;;;6.44;100.00
7052;BME280;3567;52.444;13.556;2023-04-20T05:39:33;101745.97;;;6.44;100.00
7052;BME280;3567;52.444;13.556;2023-04-20T05:41:59;101758.09;;;6.47;100.00
7052;BME280;3567;52.444;13.556;2023-04-20T05:44:24;101748.78;;;6.51;100.00
7052;BME280;3567;52.444;13.556;2023-04-20T05:46:50;101735.09;;;6.54;100.00
7052;BME280;3567;52.444;13.556;2023-04-20T05:49:15;101746.84;;;6.60;100.00
7052;BME280;3567;52.444;13.556;2023-04-20T05:51:40;101747.53;;;6.62;100.00
7052;BME280;3567;52.444;13.556;2023-04-20T05:54:06;101741.00;;;6.64;100.00
7052;BME280;3567;52.444;13.556;2023-04-20T05:56:31;101738.34;;;6.64;100.00
7052;BME280;3567;52.444;13.556;2023-04-20T05:58:57;101733.69;;;6.66;100.00
7052;BME280;3567;52.444;13.556;2023-04-20T06:01:23;101749.28;;;6.69;100.00
7052;BME280;3567;52.444;13.556;2023-04-20T06:03:49;101748.94;;;6.72;100.00
7052;BME280;3567;52.444;13.556;2023-04-20T06:06:14;101753.56;;;6.78;100.00
7052;BME280;3567;52.444;13.556;2023-04-20T06:08:40;101750.34;;;6.83;100.00
7052;BME280;3567;52.444;13.556;2023-04-20T06:11:05;101749.00;;;6.87;100.00
7052;BME280;3567;52.444;13.556;2023-04-20T06:13:31;101753.13;;;6.90;100.00
7052;BME280;3567;52.444;13.556;2023-04-20T06:15:56;101764.13;;;6.87;100.00
7052;BME280;3567;52.444;13.556;2023-04-20T06:18:22;101774.78;;;6.87;100.00
7052;BME280;3567;52.444;13.556;2023-04-20T06:20:47;101756.50;;;6.83;100.00
7052;BME280;3567;52.444;13.556;2023-04-20T06:23:13;101768.19;;;6.82;100.00
7052;BME280;3567;52.444;13.556;2023-04-20T06:25:38;101772.50;;;6.83;100.00
7052;BME280;3567;52.444;13.556;2023-04-20T06:28:04;101778.28;;;6.87;100.00
7052;BME280;3567;52.444;13.556;2023-04-20T06:30:31;101775.25;;;6.90;100.00
7052;BME280;3567;52.444;13.556;2023-04-20T06:32:58;101770.41;;;6.94;100.00
7052;BME280;3567;52.444;13.556;2023-04-20T06:35:24;101766.72;;;6.95;100.00
7052;BME280;3567;52.444;13.556;2023-04-20T06:37:50;101768.88;;;6.99;100.00
7052;BME280;3567;52.444;13.556;2023-04-20T06:40:15;101775.31;;;7.05;100.00
7052;BME280;3567;52.444;13.556;2023-04-20T06:42:41;101776.44;;;7.11;100.00
7052;BME280;3567;52.444;13.556;2023-04-20T06:45:07;101780.84;;;7.18;100.00
7052;BME280;3567;52.444;13.556;2023-04-20T06:47:33;101770.47;;;7.23;100.00
7052;BME280;3567;52.444;13.556;2023-04-20T06:50:00;101775.94;;;7.30;100.00
7052;BME280;3567;52.444;13.556;2023-04-20T06:52:26;101769.97;;;7.43;100.00
7052;BME280;3567;52.444;13.556;2023-04-20T06:54:52;101765.53;;;7.50;100.00
7052;BME280;3567;52.444;13.556;2023-04-20T06:57:17;101768.88;;;7.52;100.00
7052;BME280;3567;52.444;13.556;2023-04-20T06:59:43;101756.81;;;7.56;100.00
7052;BME280;3567;52.444;13.556;2023-04-20T07:02:08;101752.41;;;7.63;100.00
7052;BME280;3567;52.444;13.556;2023-04-20T07:04:33;101764.63;;;7.72;100.00
7052;BME280;3567;52.444;13.556;2023-04-20T07:06:59;101779.25;;;7.91;100.00
7052;BME280;3567;52.444;13.556;2023-04-20T07:09:24;101778.22;;;8.07;100.00
7052;BME280;3567;52.444;13.556;2023-04-20T07:11:49;101781.69;;;8.22;100.00
7052;BME280;3567;52.444;13.556;2023-04-20T07:14:15;101790.03;;;8.34;100.00
7052;BME280;3567;52.444;13.556;2023-04-20T07:16:40;101785.72;;;8.48;100.00
7052;BME280;3567;52.444;13.556;2023-04-20T07:19:06;101794.81;;;8.53;100.00
7052;BME280;3567;52.444;13.556;2023-04-20T07:21:31;101796.31;;;8.62;100.00
7052;BME280;3567;52.444;13.556;2023-04-20T07:23:57;101789.66;;;8.73;100.00
7052;BME280;3567;52.444;13.556;2023-04-20T07:26:23;101788.50;;;8.82;100.00
7052;BME280;3567;52.444;13.556;2023-04-20T07:28:50;101781.78;;;8.86;100.00
7052;BME280;3567;52.444;13.556;2023-04-20T07:31:16;101798.06;;;8.91;100.00
7052;BME280;3567;52.444;13.556;2023-04-20T07:33:41;101786.59;;;8.98;100.00
7052;BME280;3567;52.444;13.556;2023-04-20T07:36:07;101788.00;;;8.93;100.00
7052;BME280;3567;52.444;13.556;2023-04-20T07:38:33;101790.31;;;8.97;100.00
7052;BME280;3567;52.444;13.556;2023-04-20T07:40:58;101795.91;;;9.02;100.00
7052;BME280;3567;52.444;13.556;2023-04-20T07:43:24;101796.91;;;9.01;100.00
7052;BME280;3567;52.444;13.556;2023-04-20T07:45:49;101800.22;;;9.03;100.00
7052;BME280;3567;52.444;13.556;2023-04-20T07:48:15;101801.88;;;9.04;100.00
7052;BME280;3567;52.444;13.556;2023-04-20T07:50:40;101805.56;;;9.03;100.00
7052;BME280;3567;52.444;13.556;2023-04-20T07:53:05;101809.63;;;8.99;100.00
7052;BME280;3567;52.444;13.556;2023-04-20T07:55:31;101808.25;;;9.03;100.00
7052;BME280;3567;52.444;13.556;2023-04-20T07:57:56;101803.50;;;9.05;100.00
7052;BME280;3567;52.444;13.556;2023-04-20T08:00:22;101819.69;;;9.18;100.00
7052;BME280;3567;52.444;13.556;2023-04-20T08:02:48;101807.63;;;9.29;100.00
7052;BME280;3567;52.444;13.556;2023-04-20T08:05:13;101807.63;;;9.57;100.00
7052;BME280;3567;52.444;13.556;2023-04-20T08:07:39;101806.63;;;9.92;100.00
7052;BME280;3567;52.444;13.556;2023-04-20T08:10:05;101806.88;;;10.04;98.75
7052;BME280;3567;52.444;13.556;2023-04-20T08:12:31;101811.13;;;10.33;98.64
7052;BME280;3567;52.444;13.556;2023-04-20T08:14:57;101807.25;;;10.42;96.60
7052;BME280;3567;52.444;13.556;2023-04-20T08:17:28;101817.53;;;10.32;95.62
7052;BME280;3567;52.444;13.556;2023-04-20T08:19:54;101818.34;;;10.33;96.41
7052;BME280;3567;52.444;13.556;2023-04-20T08:22:19;101807.22;;;10.29;96.19
7052;BME280;3567;52.444;13.556;2023-04-20T08:24:45;101817.84;;;10.22;96.38
7052;BME280;3567;52.444;13.556;2023-04-20T08:27:11;101815.81;;;10.18;96.30
7052;BME280;3567;52.444;13.556;2023-04-20T08:29:37;101818.41;;;10.05;96.48
7052;BME280;3567;52.444;13.556;2023-04-20T08:32:03;101825.16;;;9.94;96.60
7052;BME280;3567;52.444;13.556;2023-04-20T08:34:28;101817.66;;;9.76;96.72
7052;BME280;3567;52.444;13.556;2023-04-20T08:36:53;101822.47;;;9.59;97.06
7052;BME280;3567;52.444;13.556;2023-04-20T08:39:20;101824.59;;;9.42;98.09
7052;BME280;3567;52.444;13.556;2023-04-20T08:41:48;101826.72;;;9.26;98.00
7052;BME280;3567;52.444;13.556;2023-04-20T08:44:18;101826.22;;;9.15;98.90
7052;BME280;3567;52.444;13.556;2023-04-20T08:46:46;101821.22;;;9.06;99.50
7052;BME280;3567;52.444;13.556;2023-04-20T08:49:12;101830.59;;;8.95;99.64
7052;BME280;3567;52.444;13.556;2023-04-20T08:51:39;101830.91;;;8.85;100.00
7052;BME280;3567;52.444;13.556;2023-04-20T08:54:05;101832.28;;;8.81;100.00
7052;BME280;3567;52.444;13.556;2023-04-20T08:56:35;101825.03;;;8.75;100.00
7052;BME280;3567;52.444;13.556;2023-04-20T08:59:02;101825.69;;;8.62;100.00
7052;BME280;3567;52.444;13.556;2023-04-20T09:01:28;101828.50;;;8.54;100.00
7052;BME280;3567;52.444;13.556;2023-04-20T09:03:54;101822.63;;;8.44;100.00
7052;BME280;3567;52.444;13.556;2023-04-20T09:06:19;101818.88;;;8.38;100.00
7052;BME280;3567;52.444;13.556;2023-04-20T09:08:47;101822.91;;;8.34;100.00
7052;BME280;3567;52.444;13.556;2023-04-20T09:11:26;101826.94;;;8.30;100.00
7052;BME280;3567;52.444;13.556;2023-04-20T09:13:59;101823.19;;;8.25;100.00
7052;BME280;3567;52.444;13.556;2023-04-20T09:16:24;101824.75;;;8.19;100.00
7052;BME280;3567;52.444;13.556;2023-04-20T09:18:52;101821.25;;;8.19;100.00
7052;BME280;3567;52.444;13.556;2023-04-20T09:21:19;101823.50;;;8.15;100.00
7052;BME280;3567;52.444;13.556;2023-04-20T09:24:03;101822.28;;;8.18;100.00
7052;BME280;3567;52.444;13.556;2023-04-20T09:26:32;101818.50;;;8.27;100.00
7052;BME280;3567;52.444;13.556;2023-04-20T09:28:59;101816.72;;;8.34;100.00
7052;BME280;3567;52.444;13.556;2023-04-20T09:31:25;101817.91;;;8.46;100.00
7052;BME280;3567;52.444;13.556;2023-04-20T09:34:00;101810.06;;;8.59;100.00
7052;BME280;3567;52.444;13.556;2023-04-20T09:36:39;101816.25;;;8.81;100.00
7052;BME280;3567;52.444;13.556;2023-04-20T09:39:08;101813.69;;;8.95;100.00
7052;BME280;3567;52.444;13.556;2023-04-20T09:41:34;101807.22;;;9.04;100.00
7052;BME280;3567;52.444;13.556;2023-04-20T09:44:00;101802.50;;;9.27;100.00
7052;BME280;3567;52.444;13.556;2023-04-20T09:46:28;101799.16;;;9.53;100.00
7052;BME280;3567;52.444;13.556;2023-04-20T09:48:56;101804.09;;;9.84;100.00
7052;BME280;3567;52.444;13.556;2023-04-20T09:51:24;101800.50;;;10.05;100.00
7052;BME280;3567;52.444;13.556;2023-04-20T09:53:50;101800.50;;;10.12;100.00
7052;BME280;3567;52.444;13.556;2023-04-20T09:56:16;101807.16;;;10.22;100.00
7052;BME280;3567;52.444;13.556;2023-04-20T09:58:42;101803.84;;;10.20;100.00
7052;BME280;3567;52.444;13.556;2023-04-20T10:01:09;101816.88;;;10.23;100.00
7052;BME280;3567;52.444;13.556;2023-04-20T10:03:35;101810.94;;;10.28;100.00
7052;BME280;3567;52.444;13.556;2023-04-20T10:06:00;101801.44;;;10.32;99.41
7052;BME280;3567;52.444;13.556;2023-04-20T10:08:26;101803.91;;;10.27;98.37
7052;BME280;3567;52.444;13.556;2023-04-20T10:10:51;101799.59;;;10.33;99.87
7052;BME280;3567;52.444;13.556;2023-04-20T10:13:17;101803.31;;;10.38;98.17
7052;BME280;3567;52.444;13.556;2023-04-20T10:15:47;101798.59;;;10.34;97.73
7052;BME280;3567;52.444;13.556;2023-04-20T10:18:22;101799.59;;;10.26;98.79
7052;BME280;3567;52.444;13.556;2023-04-20T10:20:49;101793.63;;;10.31;98.63
7052;BME280;3567;52.444;13.556;2023-04-20T10:23:15;101789.16;;;10.44;99.04
7052;BME280;3567;52.444;13.556;2023-04-20T10:25:54;101795.56;;;10.57;98.53
7052;BME280;3567;52.444;13.556;2023-04-20T10:28:19;101791.84;;;10.58;97.33
7052;BME280;3567;52.444;13.556;2023-04-20T10:30:49;101796.63;;;10.69;98.27
7052;BME280;3567;52.444;13.556;2023-04-20T10:33:15;101785.72;;;10.77;97.06
7052;BME280;3567;52.444;13.556;2023-04-20T10:35:52;101783.47;;;10.87;96.90
7052;BME280;3567;52.444;13.556;2023-04-20T10:38:34;101776.84;;;11.16;97.47
7052;BME280;3567;52.444;13.556;2023-04-20T10:41:06;101772.28;;;11.57;96.95
7052;BME280;3567;52.444;13.556;2023-04-20T10:43:32;101775.53;;;11.78;95.30
7052;BME280;3567;52.444;13.556;2023-04-20T10:45:59;101770.06;;;12.12;95.43
7052;BME280;3567;52.444;13.556;2023-04-20T10:48:24;101770.94;;;12.75;92.98
7052;BME280;3567;52.444;13.556;2023-04-20T10:50:50;101769.00;;;12.89;90.93
7052;BME280;3567;52.444;13.556;2023-04-20T10:53:22;101770.16;;;13.00;90.49
7052;BME280;3567;52.444;13.556;2023-04-20T10:55:57;101768.84;;;13.34;90.16
7052;BME280;3567;52.444;13.556;2023-04-20T10:58:23;101764.22;;;13.41;88.65
7052;BME280;3567;52.444;13.556;2023-04-20T11:00:59;101762.38;;;13.10;87.08
7052;BME280;3567;52.444;13.556;2023-04-20T11:03:27;101750.25;;;12.76;87.53
7052;BME280;3567;52.444;13.556;2023-04-20T11:05:53;101749.19;;;12.52;88.56
7052;BME280;3567;52.444;13.556;2023-04-20T11:08:18;101754.00;;;12.43;89.51
7052;BME280;3567;52.444;13.556;2023-04-20T11:10:44;101749.31;;;12.32;89.56
7052;BME280;3567;52.444;13.556;2023-04-20T11:13:19;101750.81;;;12.21;89.97
7052;BME280;3567;52.444;13.556;2023-04-20T11:15:46;101755.56;;;12.19;90.75
7052;BME280;3567;52.444;13.556;2023-04-20T11:18:12;101748.53;;;12.18;90.53
7052;BME280;3567;52.444;13.556;2023-04-20T11:20:49;101757.59;;;12.24;90.74
7052;BME280;3567;52.444;13.556;2023-04-20T11:23:15;101756.19;;;12.21;90.53
7052;BME280;3567;52.444;13.556;2023-04-20T11:25:55;101751.63;;;12.22;90.86
7052;BME280;3567;52.444;13.556;2023-04-20T11:28:21;101752.16;;;12.37;91.25
7052;BME280;3567;52.444;13.556;2023-04-20T11:30:47;101747.53;;;12.51;91.70
7052;BME280;3567;52.444;13.556;2023-04-20T11:33:14;101753.22;;;12.68;91.01
7052;BME280;3567;52.444;13.556;2023-04-20T11:35:41;101749.16;;;12.58;90.00
7052;BME280;3567;52.444;13.556;2023-04-20T11:38:07;101748.09;;;12.59;90.13
7052;BME280;3567;52.444;13.556;2023-04-20T11:40:33;101745.84;;;12.56;90.40
7052;BME280;3567;52.444;13.556;2023-04-20T11:42:59;101733.88;;;12.84;91.24
7052;BME280;3567;52.444;13.556;2023-04-20T11:45:25;101740.88;;;13.35;90.27
7052;BME280;3567;52.444;13.556;2023-04-20T11:47:53;101733.03;;;13.52;88.53
7052;BME280;3567;52.444;13.556;2023-04-20T11:50:19;101731.94;;;13.59;87.51
7052;BME280;3567;52.444;13.556;2023-04-20T11:52:45;101736.03;;;13.44;86.92
7052;BME280;3567;52.444;13.556;2023-04-20T11:55:11;101723.75;;;13.29;87.47
7052;BME280;3567;52.444;13.556;2023-04-20T11:57:36;101731.25;;;13.21;87.61
7052;BME280;3567;52.444;13.556;2023-04-20T12:00:02;101731.25;;;13.27;88.01
7052;BME280;3567;52.444;13.556;2023-04-20T12:02:28;101715.75;;;13.41;88.44
7052;BME280;3567;52.444;13.556;2023-04-20T12:04:54;101712.78;;;13.49;87.53
7052;BME280;3567;52.444;13.556;2023-04-20T12:07:21;101722.72;;;13.85;87.50
7052;BME280;3567;52.444;13.556;2023-04-20T12:09:46;101718.94;;;14.35;87.14
7052;BME280;3567;52.444;13.556;2023-04-20T12:12:11;101707.38;;;15.11;85.56
7052;BME280;3567;52.444;13.556;2023-04-20T12:14:37;101712.63;;;15.53;83.18
7052;BME280;3567;52.444;13.556;2023-04-20T12:17:03;101709.78;;;15.60;81.56
7052;BME280;3567;52.444;13.556;2023-04-20T12:19:29;101709.81;;;15.48;80.86
7052;BME280;3567;52.444;13.556;2023-04-20T12:21:55;101706.41;;;15.41;79.72
7052;BME280;3567;52.444;13.556;2023-04-20T12:24:21;101701.03;;;15.93;79.58
7052;BME280;3567;52.444;13.556;2023-04-20T12:26:46;101701.88;;;16.39;78.73
7052;BME280;3567;52.444;13.556;2023-04-20T12:29:12;101692.03;;;16.78;76.45
7052;BME280;3567;52.444;13.556;2023-04-20T12:31:37;101695.91;;;16.54;73.61
7052;BME280;3567;52.444;13.556;2023-04-20T12:34:03;101691.59;;;16.24;73.82
7052;BME280;3567;52.444;13.556;2023-04-20T12:36:28;101682.78;;;16.45;76.10
7052;BME280;3567;52.444;13.556;2023-04-20T12:38:54;101683.75;;;16.85;74.50
7052;BME280;3567;52.444;13.556;2023-04-20T12:41:20;101673.75;;;17.46;73.37
7052;BME280;3567;52.444;13.556;2023-04-20T12:43:50;101685.59;;;18.05;71.79
7052;BME280;3567;52.444;13.556;2023-04-20T12:46:16;101683.13;;;18.04;67.70
7052;BME280;3567;52.444;13.556;2023-04-20T12:48:42;101670.31;;;17.72;68.88
7052;BME280;3567;52.444;13.556;2023-04-20T12:51:10;101673.69;;;17.41;67.84
7052;BME280;3567;52.444;13.556;2023-04-20T12:53:35;101661.84;;;16.86;69.53
7052;BME280;3567;52.444;13.556;2023-04-20T12:56:01;101674.09;;;16.27;71.77
7052;BME280;3567;52.444;13.556;2023-04-20T12:58:26;101667.56;;;15.94;73.61